createdAt,value
2023-01-10T00:04:34.143Z,4.7
2023-01-10T00:10:01.742Z,4.8
2023-01-10T00:15:43.466Z,4.6
2023-01-10T00:21:29.349Z,4.8
2023-01-10T00:26:40.139Z,4.7
2023-01-10T00:32:34.541Z,4.7
2023-01-10T00:37:45.886Z,4.4
2023-01-10T00:43:29.538Z,4.6
2023-01-10T00:48:56.908Z,4.2
2023-01-10T00:54:52.965Z,3.6
2023-01-10T01:00:28.762Z,3.5
2023-01-10T01:05:47.954Z,3.5
2023-01-10T01:11:40.008Z,3.5
2023-01-10T01:16:52.068Z,3.6
2023-01-10T01:22:46.748Z,3.6
2023-01-10T01:28:10.779Z,3.5
2023-01-10T01:33:53.337Z,3.4
2023-01-10T01:39:16.243Z,3.3
2023-01-10T01:44:50.849Z,3.3
2023-01-10T01:50:34.344Z,3.2
2023-01-10T01:56:14.139Z,3.4
2023-01-10T02:01:44.733Z,3.3
2023-01-10T02:07:17.299Z,3.3
2023-01-10T02:12:45.454Z,3.2
2023-01-10T02:18:03.116Z,3.2
2023-01-10T02:23:54.961Z,3.3
2023-01-10T02:29:29.664Z,3.3
2023-01-10T02:35:06.593Z,3.3
2023-01-10T02:40:30.319Z,3.8
2023-01-10T02:46:05.318Z,3.8
2023-01-10T02:51:29.876Z,4.3
2023-01-10T02:57:01.190Z,4
2023-01-10T03:02:36.675Z,3.6
2023-01-10T03:08:23.997Z,3.4
2023-01-10T03:14:08.322Z,3.3
2023-01-10T03:19:21.911Z,3.2
2023-01-10T03:24:57.430Z,3.1
2023-01-10T03:30:50.104Z,3.2
2023-01-10T03:36:03.311Z,3.2
2023-01-10T03:42:01.773Z,3.1
2023-01-10T03:47:08.493Z,3.1
2023-01-10T03:53:00.382Z,3
2023-01-10T03:58:26.307Z,3.1
2023-01-10T04:04:15.786Z,3.1
2023-01-10T04:09:54.524Z,3.2
2023-01-10T04:15:12.492Z,3.1
2023-01-10T04:20:36.880Z,3
2023-01-10T04:26:26.812Z,3
2023-01-10T04:31:59.820Z,3
2023-01-10T04:37:46.059Z,3
2023-01-10T04:42:52.179Z,3.2
2023-01-10T04:48:39.465Z,3.1
2023-01-10T04:54:15.403Z,3.1
2023-01-10T04:59:45.590Z,3
2023-01-10T05:05:34.690Z,2.9
2023-01-10T05:11:02.052Z,2.8
2023-01-10T05:16:18.643Z,2.9
2023-01-10T05:22:06.950Z,2.7
2023-01-10T05:27:30.767Z,2.7
2023-01-10T05:32:59.494Z,2.6
2023-01-10T05:38:47.320Z,2.7
2023-01-10T05:44:30.661Z,2.7
2023-01-10T05:50:07.265Z,2.8
2023-01-10T05:55:28.405Z,2.8
2023-01-10T06:01:02.101Z,2.7
2023-01-10T06:06:20.793Z,2.6
2023-01-10T06:12:14.112Z,2.7
2023-01-10T06:17:40.795Z,2.7
2023-01-10T06:23:24.801Z,2.7
2023-01-10T06:29:03.307Z,2.7
2023-01-10T06:34:15.997Z,2.8
2023-01-10T06:40:08.404Z,2.7
2023-01-10T06:45:33.721Z,2.6
2023-01-10T06:51:08.865Z,2.5
2023-01-10T06:56:37.405Z,2.5
2023-01-10T07:02:03.842Z,2.2
2023-01-10T07:07:39.882Z,1.9
2023-01-10T07:13:18.772Z,1.9
2023-01-10T07:19:02.892Z,2.2
2023-01-10T07:24:33.469Z,2.3
2023-01-10T07:30:04.226Z,2.2
2023-01-10T07:35:29.299Z,2.3
2023-01-10T07:41:05.045Z,2.4
2023-01-10T07:46:34.681Z,2.4
2023-01-10T07:52:23.867Z,2.5
2023-01-10T07:57:34.797Z,2.6
2023-01-10T08:03:26.397Z,2.6
2023-01-10T08:08:54.984Z,2.7
2023-01-10T08:14:25.442Z,2.7
2023-01-10T08:19:49.462Z,2.8
2023-01-10T08:25:32.337Z,2.8
2023-01-10T08:31:02.076Z,2.9
2023-01-10T08:36:44.981Z,2.9
2023-01-10T08:42:24.651Z,3.1
2023-01-10T08:47:43.422Z,3.2
2023-01-10T08:53:18.103Z,3.2
2023-01-10T08:59:08.770Z,3.3
2023-01-10T09:04:48.697Z,3.4
2023-01-10T09:09:57.069Z,3.7
2023-01-10T09:15:29.485Z,4
2023-01-10T09:21:30.780Z,4.3
2023-01-10T09:26:49.997Z,4.6
2023-01-10T09:32:17.400Z,4.3
2023-01-10T09:38:02.228Z,4.1
2023-01-10T09:43:47.756Z,4.1
2023-01-10T09:49:06.931Z,4.4
2023-01-10T09:54:54.849Z,4.7
2023-01-10T10:00:06.583Z,4.9
2023-01-10T10:06:11.047Z,4.7
2023-01-10T10:11:19.989Z,4.6
2023-01-10T10:17:02.930Z,5
2023-01-10T10:22:40.427Z,5.3
2023-01-10T10:28:13.702Z,5.3
2023-01-10T10:33:34.375Z,5.5
2023-01-10T10:39:38.236Z,5.6
2023-01-10T10:45:08.576Z,5.7
2023-01-10T10:50:46.127Z,5.9
2023-01-10T10:56:07.375Z,6.2
2023-01-10T11:07:11.407Z,6.3
2023-01-10T11:12:41.876Z,6.3
2023-01-10T11:18:25.800Z,6.4
2023-01-10T11:23:56.616Z,6.2
2023-01-10T11:29:44.458Z,6.3
2023-01-10T11:35:20.233Z,6.3
2023-01-10T11:40:40.568Z,6.4
2023-01-10T11:46:24.109Z,6.7
2023-01-10T11:52:02.111Z,6.6
2023-01-10T11:57:40.361Z,6.3
2023-01-10T12:02:59.587Z,6.4
2023-01-10T12:08:36.719Z,6.7
2023-01-10T12:14:21.054Z,6.6
2023-01-10T12:19:43.502Z,6.5
2023-01-10T12:25:29.679Z,6.7
2023-01-10T12:31:10.243Z,6.7
2023-01-10T12:36:47.238Z,6.7
2023-01-10T12:41:56.687Z,6.8
2023-01-10T12:47:47.301Z,6.7
2023-01-10T12:53:16.239Z,6.9
2023-01-10T12:59:00.100Z,6.9
2023-01-10T13:04:39.153Z,7
2023-01-10T13:10:16.514Z,7
2023-01-10T13:15:27.438Z,7
2023-01-10T13:21:21.446Z,6.8
2023-01-10T13:26:44.154Z,6.9
2023-01-10T13:32:33.162Z,6.5
2023-01-10T13:38:09.578Z,6.6
2023-01-10T13:43:33.986Z,6.6
2023-01-10T13:49:15.842Z,6.5
2023-01-10T13:54:31.641Z,6.5
2023-01-10T14:00:08.179Z,6.4
2023-01-10T14:06:06.833Z,6.4
2023-01-10T14:11:40.926Z,6.3
2023-01-10T14:16:55.337Z,6.6
2023-01-10T14:22:49.005Z,6.6
2023-01-10T14:28:19.887Z,6.5
2023-01-10T14:33:36.441Z,6.5
2023-01-10T14:39:16.068Z,6.6
2023-01-10T14:44:48.538Z,6.8
2023-01-10T14:50:21.510Z,6.7
2023-01-10T14:56:03.571Z,6.6
2023-01-10T15:01:39.297Z,6.2
2023-01-10T15:07:12.029Z,6
2023-01-10T15:12:59.476Z,6
2023-01-10T15:18:36.986Z,6
2023-01-10T15:23:57.799Z,5.9
2023-01-10T15:29:23.535Z,5.8
2023-01-10T15:35:20.413Z,5.7
2023-01-10T15:40:35.915Z,5.6
2023-01-10T15:46:12.754Z,5.7
2023-01-10T15:52:01.858Z,5.7
2023-01-10T15:57:29.093Z,5.7
2023-01-10T16:03:10.960Z,5.6
2023-01-10T16:08:37.003Z,5.6
2023-01-10T16:14:10.447Z,5.6
2023-01-10T16:19:47.816Z,5.6
2023-01-10T16:25:11.400Z,5.6
2023-01-10T16:30:50.379Z,5.6
2023-01-10T16:36:18.035Z,5.6
2023-01-10T16:42:05.898Z,5.6
2023-01-10T16:47:48.681Z,5.6
2023-01-10T16:53:19.972Z,5.6
2023-01-10T16:58:53.856Z,5.6
2023-01-10T17:04:22.061Z,5.5
2023-01-10T17:09:54.404Z,5.5
2023-01-10T17:15:25.836Z,5.6
2023-01-10T17:21:10.724Z,5.6
2023-01-10T17:26:49.087Z,5.5
2023-01-10T17:32:16.145Z,5.5
2023-01-10T17:37:48.765Z,5.6
2023-01-10T17:43:16.644Z,5.5
2023-01-10T17:49:07.631Z,5.5
2023-01-10T17:54:18.725Z,5.5
2023-01-10T18:00:03.263Z,5.5
2023-01-10T18:05:34.603Z,5.4
2023-01-10T18:11:18.193Z,5.4
2023-01-10T18:16:42.957Z,5.4
2023-01-10T18:22:13.180Z,5.3
2023-01-10T18:27:43.101Z,5.4
2023-01-10T18:33:17.527Z,5.4
2023-01-10T18:39:05.830Z,5.4
2023-01-10T18:44:31.996Z,5.3
2023-01-10T18:50:19.010Z,5.3
2023-01-10T18:55:40.272Z,5.3
2023-01-10T19:01:19.539Z,5.4
2023-01-10T19:06:59.493Z,5.3
2023-01-10T19:12:27.831Z,5.5
2023-01-10T19:18:09.855Z,5.5
2023-01-10T19:23:35.015Z,5.5
2023-01-10T19:29:04.043Z,5.3
2023-01-10T19:34:48.845Z,5.4
2023-01-10T19:40:21.114Z,5.4
2023-01-10T19:46:05.284Z,5.3
2023-01-10T19:51:19.419Z,5.3
2023-01-10T19:57:00.297Z,5.5
2023-01-10T20:02:35.696Z,5.6
2023-01-10T20:08:12.773Z,5.4
2023-01-10T20:13:53.374Z,5.3
2023-01-10T20:19:08.062Z,5.3
2023-01-10T20:24:50.161Z,5.3
2023-01-10T20:30:21.938Z,5.4
2023-01-10T20:35:46.420Z,5.5
2023-01-10T20:41:43.267Z,5.5
2023-01-10T20:47:05.397Z,5.5
2023-01-10T20:52:44.238Z,5.6
2023-01-10T20:58:11.503Z,5.6
2023-01-10T21:03:58.200Z,5.7
2023-01-10T21:09:14.040Z,5.7
2023-01-10T21:15:04.554Z,5.8
2023-01-10T21:20:39.442Z,5.7
2023-01-10T21:26:20.751Z,5.8
2023-01-10T21:31:38.119Z,5.7
2023-01-10T21:37:16.269Z,5.7
2023-01-10T21:42:53.185Z,5.8
2023-01-10T21:48:32.750Z,5.8
2023-01-10T21:54:05.321Z,5.7
2023-01-10T21:59:35.789Z,5.8
2023-01-10T22:05:19.774Z,5.8
2023-01-10T22:10:45.832Z,5.8
2023-01-10T22:16:17.798Z,5.8
2023-01-10T22:21:48.019Z,5.7
2023-01-10T22:27:28.288Z,5.6
2023-01-10T22:33:06.732Z,5.5
2023-01-10T22:38:23.660Z,5.5
2023-01-10T22:44:20.057Z,5.6
2023-01-10T22:55:19.274Z,5.7
2023-01-10T23:00:39.113Z,5.7
2023-01-10T23:06:20.354Z,5.7
2023-01-10T23:11:58.797Z,5.7
2023-01-10T23:17:32.049Z,5.8
2023-01-10T23:23:21.243Z,5.8
2023-01-10T23:28:47.053Z,5.8
2023-01-10T23:34:24.687Z,5.9
2023-01-10T23:39:44.454Z,5.8
2023-01-10T23:45:15.351Z,5.8
2023-01-10T23:51:12.391Z,5.8
2023-01-10T23:56:21.736Z,5.8
